sensor_id;sensor_type;location;lat;lon;timestamp;P1;durP1;ratioP1;P2;durP2;ratioP2
26600;SDS011;14241;49.260;10.496;2023-04-28T00:02:05;9.73;;;6.33;;
26600;SDS011;14241;49.260;10.496;2023-04-28T00:04:30;8.82;;;6.40;;
26600;SDS011;14241;49.260;10.496;2023-04-28T00:06:56;9.00;;;6.13;;
26600;SDS011;14241;49.260;10.496;2023-04-28T00:09:21;8.93;;;6.17;;
26600;SDS011;14241;49.260;10.496;2023-04-28T00:11:46;12.00;;;6.20;;
26600;SDS011;14241;49.260;10.496;2023-04-28T00:14:12;7.03;;;6.00;;
26600;SDS011;14241;49.260;10.496;2023-04-28T00:16:37;8.88;;;6.50;;
26600;SDS011;14241;49.260;10.496;2023-04-28T00:19:02;10.23;;;6.05;;
26600;SDS011;14241;49.260;10.496;2023-04-28T00:21:27;9.45;;;6.22;;
26600;SDS011;14241;49.260;10.496;2023-04-28T00:23:53;9.38;;;6.18;;
26600;SDS011;14241;49.260;10.496;2023-04-28T00:26:18;14.02;;;6.22;;
26600;SDS011;14241;49.260;10.496;2023-04-28T00:28:43;10.73;;;6.88;;
26600;SDS011;14241;49.260;10.496;2023-04-28T00:31:09;12.13;;;6.80;;
26600;SDS011;14241;49.260;10.496;2023-04-28T00:33:35;8.40;;;6.35;;
26600;SDS011;14241;49.260;10.496;2023-04-28T00:36:01;7.35;;;6.13;;
26600;SDS011;14241;49.260;10.496;2023-04-28T00:38:26;13.73;;;6.32;;
26600;SDS011;14241;49.260;10.496;2023-04-28T00:40:51;11.32;;;6.50;;
26600;SDS011;14241;49.260;10.496;2023-04-28T00:43:17;8.75;;;5.78;;
26600;SDS011;14241;49.260;10.496;2023-04-28T00:45:42;12.07;;;6.38;;
26600;SDS011;14241;49.260;10.496;2023-04-28T00:48:07;10.60;;;5.90;;
26600;SDS011;14241;49.260;10.496;2023-04-28T00:50:33;9.32;;;6.32;;
26600;SDS011;14241;49.260;10.496;2023-04-28T00:52:58;7.65;;;5.55;;
26600;SDS011;14241;49.260;10.496;2023-04-28T00:55:25;10.60;;;6.35;;
26600;SDS011;14241;49.260;10.496;2023-04-28T00:57:50;9.05;;;6.50;;
26600;SDS011;14241;49.260;10.496;2023-04-28T01:00:15;8.88;;;5.88;;
26600;SDS011;14241;49.260;10.496;2023-04-28T01:02:41;8.43;;;5.78;;
26600;SDS011;14241;49.260;10.496;2023-04-28T01:05:07;12.30;;;5.97;;
26600;SDS011;14241;49.260;10.496;2023-04-28T01:07:32;9.80;;;6.47;;
26600;SDS011;14241;49.260;10.496;2023-04-28T01:09:59;9.90;;;6.15;;
26600;SDS011;14241;49.260;10.496;2023-04-28T01:12:25;10.77;;;6.20;;
26600;SDS011;14241;49.260;10.496;2023-04-28T01:14:50;7.32;;;6.18;;
26600;SDS011;14241;49.260;10.496;2023-04-28T01:17:16;8.55;;;6.10;;
26600;SDS011;14241;49.260;10.496;2023-04-28T01:19:41;8.40;;;6.40;;
26600;SDS011;14241;49.260;10.496;2023-04-28T01:22:06;10.63;;;6.57;;
26600;SDS011;14241;49.260;10.496;2023-04-28T01:24:34;8.23;;;6.00;;
26600;SDS011;14241;49.260;10.496;2023-04-28T01:26:59;9.85;;;6.30;;
26600;SDS011;14241;49.260;10.496;2023-04-28T01:29:25;9.55;;;6.50;;
26600;SDS011;14241;49.260;10.496;2023-04-28T01:31:50;10.93;;;7.20;;
26600;SDS011;14241;49.260;10.496;2023-04-28T01:34:15;10.63;;;6.00;;
26600;SDS011;14241;49.260;10.496;2023-04-28T01:36:40;8.47;;;6.47;;
26600;SDS011;14241;49.260;10.496;2023-04-28T01:39:06;11.77;;;6.35;;
26600;SDS011;14241;49.260;10.496;2023-04-28T01:41:31;10.73;;;6.53;;
26600;SDS011;14241;49.260;10.496;2023-04-28T01:43:59;13.02;;;6.90;;
26600;SDS011;14241;49.260;10.496;2023-04-28T01:46:25;9.00;;;6.45;;
26600;SDS011;14241;49.260;10.496;2023-04-28T01:48:50;8.63;;;5.88;;
26600;SDS011;14241;49.260;10.496;2023-04-28T01:51:15;8.70;;;6.60;;
26600;SDS011;14241;49.260;10.496;2023-04-28T01:53:40;11.32;;;6.90;;
26600;SDS011;14241;49.260;10.496;2023-04-28T01:56:06;8.82;;;6.05;;
26600;SDS011;14241;49.260;10.496;2023-04-28T01:58:31;13.97;;;6.20;;
26600;SDS011;14241;49.260;10.496;2023-04-28T02:00:57;7.28;;;6.05;;
26600;SDS011;14241;49.260;10.496;2023-04-28T02:03:22;10.68;;;6.28;;
26600;SDS011;14241;49.260;10.496;2023-04-28T02:05:47;7.80;;;5.77;;
26600;SDS011;14241;49.260;10.496;2023-04-28T02:08:12;8.55;;;6.10;;
26600;SDS011;14241;49.260;10.496;2023-04-28T02:10:38;8.73;;;6.20;;
26600;SDS011;14241;49.260;10.496;2023-04-28T02:13:03;9.20;;;6.07;;
26600;SDS011;14241;49.260;10.496;2023-04-28T02:15:28;8.07;;;5.97;;
26600;SDS011;14241;49.260;10.496;2023-04-28T02:17:53;9.63;;;6.45;;
26600;SDS011;14241;49.260;10.496;2023-04-28T02:20:19;9.15;;;7.28;;
26600;SDS011;14241;49.260;10.496;2023-04-28T02:22:44;10.30;;;6.43;;
26600;SDS011;14241;49.260;10.496;2023-04-28T02:25:09;6.90;;;6.00;;
26600;SDS011;14241;49.260;10.496;2023-04-28T02:27:35;8.65;;;6.25;;
26600;SDS011;14241;49.260;10.496;2023-04-28T02:30:03;10.27;;;6.45;;
26600;SDS011;14241;49.260;10.496;2023-04-28T02:32:29;9.98;;;6.30;;
26600;SDS011;14241;49.260;10.496;2023-04-28T02:34:55;8.33;;;6.10;;
26600;SDS011;14241;49.260;10.496;2023-04-28T02:37:21;9.85;;;5.97;;
26600;SDS011;14241;49.260;10.496;2023-04-28T02:39:46;8.63;;;6.00;;
26600;SDS011;14241;49.260;10.496;2023-04-28T02:42:11;8.55;;;6.25;;
26600;SDS011;14241;49.260;10.496;2023-04-28T02:44:36;8.67;;;6.00;;
26600;SDS011;14241;49.260;10.496;2023-04-28T02:47:02;9.48;;;6.43;;
26600;SDS011;14241;49.260;10.496;2023-04-28T02:49:27;9.45;;;6.07;;
26600;SDS011;14241;49.260;10.496;2023-04-28T02:51:52;9.43;;;6.28;;
26600;SDS011;14241;49.260;10.496;2023-04-28T02:54:17;10.60;;;6.40;;
26600;SDS011;14241;49.260;10.496;2023-04-28T02:56:51;10.13;;;5.72;;
26600;SDS011;14241;49.260;10.496;2023-04-28T02:59:17;8.93;;;5.57;;
26600;SDS011;14241;49.260;10.496;2023-04-28T03:01:42;7.63;;;5.70;;
26600;SDS011;14241;49.260;10.496;2023-04-28T03:04:07;8.13;;;5.80;;
26600;SDS011;14241;49.260;10.496;2023-04-28T03:06:32;7.60;;;5.93;;
26600;SDS011;14241;49.260;10.496;2023-04-28T03:08:57;6.88;;;5.60;;
26600;SDS011;14241;49.260;10.496;2023-04-28T03:11:23;8.93;;;5.78;;
26600;SDS011;14241;49.260;10.496;2023-04-28T03:13:48;6.63;;;5.93;;
26600;SDS011;14241;49.260;10.496;2023-04-28T03:16:13;7.60;;;6.23;;
26600;SDS011;14241;49.260;10.496;2023-04-28T03:18:38;8.25;;;5.82;;
26600;SDS011;14241;49.260;10.496;2023-04-28T03:21:04;10.82;;;5.70;;
26600;SDS011;14241;49.260;10.496;2023-04-28T03:23:30;8.82;;;6.28;;
26600;SDS011;14241;49.260;10.496;2023-04-28T03:25:55;6.93;;;5.30;;
26600;SDS011;14241;49.260;10.496;2023-04-28T03:28:20;5.97;;;5.32;;
26600;SDS011;14241;49.260;10.496;2023-04-28T03:30:46;8.57;;;5.72;;
26600;SDS011;14241;49.260;10.496;2023-04-28T03:33:11;6.90;;;5.80;;
26600;SDS011;14241;49.260;10.496;2023-04-28T03:35:36;6.30;;;5.50;;
26600;SDS011;14241;49.260;10.496;2023-04-28T03:38:01;8.20;;;5.53;;
26600;SDS011;14241;49.260;10.496;2023-04-28T03:40:26;7.20;;;5.28;;
26600;SDS011;14241;49.260;10.496;2023-04-28T03:42:52;7.13;;;5.93;;
26600;SDS011;14241;49.260;10.496;2023-04-28T03:45:17;5.97;;;5.37;;
26600;SDS011;14241;49.260;10.496;2023-04-28T03:47:42;6.73;;;5.77;;
26600;SDS011;14241;49.260;10.496;2023-04-28T03:50:07;6.82;;;5.43;;
26600;SDS011;14241;49.260;10.496;2023-04-28T03:52:33;9.73;;;6.22;;
26600;SDS011;14241;49.260;10.496;2023-04-28T03:54:58;7.40;;;5.82;;
26600;SDS011;14241;49.260;10.496;2023-04-28T03:57:23;11.18;;;5.38;;
26600;SDS011;14241;49.260;10.496;2023-04-28T03:59:48;7.50;;;5.68;;
26600;SDS011;14241;49.260;10.496;2023-04-28T04:02:13;8.07;;;5.70;;
26600;SDS011;14241;49.260;10.496;2023-04-28T04:04:39;8.27;;;5.43;;
26600;SDS011;14241;49.260;10.496;2023-04-28T04:07:04;9.97;;;6.17;;
26600;SDS011;14241;49.260;10.496;2023-04-28T04:09:30;9.93;;;5.97;;
26600;SDS011;14241;49.260;10.496;2023-04-28T04:11:55;7.55;;;5.43;;
26600;SDS011;14241;49.260;10.496;2023-04-28T04:14:20;7.97;;;6.13;;
26600;SDS011;14241;49.260;10.496;2023-04-28T04:16:46;9.13;;;5.97;;
26600;SDS011;14241;49.260;10.496;2023-04-28T04:19:11;9.32;;;6.38;;
26600;SDS011;14241;49.260;10.496;2023-04-28T04:21:37;9.18;;;5.97;;
26600;SDS011;14241;49.260;10.496;2023-04-28T04:24:02;10.80;;;5.93;;
26600;SDS011;14241;49.260;10.496;2023-04-28T04:26:27;7.97;;;5.70;;
26600;SDS011;14241;49.260;10.496;2023-04-28T04:28:52;7.35;;;5.32;;
26600;SDS011;14241;49.260;10.496;2023-04-28T04:31:18;7.57;;;5.50;;
26600;SDS011;14241;49.260;10.496;2023-04-28T04:33:46;5.65;;;5.03;;
26600;SDS011;14241;49.260;10.496;2023-04-28T04:36:12;9.63;;;5.40;;
26600;SDS011;14241;49.260;10.496;2023-04-28T04:38:37;8.35;;;5.85;;
26600;SDS011;14241;49.260;10.496;2023-04-28T04:41:02;7.95;;;6.20;;
26600;SDS011;14241;49.260;10.496;2023-04-28T04:43:28;10.23;;;6.00;;
26600;SDS011;14241;49.260;10.496;2023-04-28T04:45:53;6.70;;;6.00;;
26600;SDS011;14241;49.260;10.496;2023-04-28T04:48:18;6.07;;;5.43;;
26600;SDS011;14241;49.260;10.496;2023-04-28T04:50:44;8.00;;;6.03;;
26600;SDS011;14241;49.260;10.496;2023-04-28T04:53:09;10.80;;;5.60;;
26600;SDS011;14241;49.260;10.496;2023-04-28T04:55:34;7.70;;;5.85;;
26600;SDS011;14241;49.260;10.496;2023-04-28T04:57:59;7.43;;;4.88;;
26600;SDS011;14241;49.260;10.496;2023-04-28T05:00:25;6.53;;;5.30;;
26600;SDS011;14241;49.260;10.496;2023-04-28T05:02:50;7.63;;;5.47;;
26600;SDS011;14241;49.260;10.496;2023-04-28T05:05:16;8.57;;;5.43;;
26600;SDS011;14241;49.260;10.496;2023-04-28T05:07:41;7.43;;;5.67;;
26600;SDS011;14241;49.260;10.496;2023-04-28T05:10:07;6.80;;;5.32;;
26600;SDS011;14241;49.260;10.496;2023-04-28T05:12:32;10.45;;;5.70;;
26600;SDS011;14241;49.260;10.496;2023-04-28T05:14:57;7.10;;;5.35;;
26600;SDS011;14241;49.260;10.496;2023-04-28T05:17:23;9.63;;;6.07;;
26600;SDS011;14241;49.260;10.496;2023-04-28T05:19:48;7.47;;;5.47;;
26600;SDS011;14241;49.260;10.496;2023-04-28T05:22:13;8.88;;;5.53;;
26600;SDS011;14241;49.260;10.496;2023-04-28T05:24:39;7.50;;;4.93;;
26600;SDS011;14241;49.260;10.496;2023-04-28T05:27:04;11.18;;;5.97;;
26600;SDS011;14241;49.260;10.496;2023-04-28T05:29:29;10.30;;;6.05;;
26600;SDS011;14241;49.260;10.496;2023-04-28T05:31:54;11.40;;;6.28;;
26600;SDS011;14241;49.260;10.496;2023-04-28T05:34:20;8.07;;;5.03;;
26600;SDS011;14241;49.260;10.496;2023-04-28T05:36:45;8.40;;;5.03;;
26600;SDS011;14241;49.260;10.496;2023-04-28T05:39:10;7.03;;;5.05;;
26600;SDS011;14241;49.260;10.496;2023-04-28T05:41:36;7.10;;;5.10;;
26600;SDS011;14241;49.260;10.496;2023-04-28T05:44:01;7.93;;;5.55;;
26600;SDS011;14241;49.260;10.496;2023-04-28T05:46:26;10.60;;;6.10;;
26600;SDS011;14241;49.260;10.496;2023-04-28T05:48:52;7.15;;;5.50;;
26600;SDS011;14241;49.260;10.496;2023-04-28T05:51:17;10.13;;;6.65;;
26600;SDS011;14241;49.260;10.496;2023-04-28T05:53:42;11.48;;;6.38;;
26600;SDS011;14241;49.260;10.496;2023-04-28T05:56:07;11.90;;;6.65;;
26600;SDS011;14241;49.260;10.496;2023-04-28T05:58:34;8.88;;;5.85;;
26600;SDS011;14241;49.260;10.496;2023-04-28T06:00:59;7.53;;;5.50;;
26600;SDS011;14241;49.260;10.496;2023-04-28T06:03:24;8.20;;;5.25;;
26600;SDS011;14241;49.260;10.496;2023-04-28T06:05:49;7.85;;;5.70;;
26600;SDS011;14241;49.260;10.496;2023-04-28T06:08:15;6.60;;;5.07;;
26600;SDS011;14241;49.260;10.496;2023-04-28T06:10:40;7.85;;;5.88;;
26600;SDS011;14241;49.260;10.496;2023-04-28T06:13:05;8.77;;;5.95;;
26600;SDS011;14241;49.260;10.496;2023-04-28T06:15:31;6.32;;;5.72;;
26600;SDS011;14241;49.260;10.496;2023-04-28T06:17:56;7.43;;;5.20;;
26600;SDS011;14241;49.260;10.496;2023-04-28T06:20:23;8.60;;;6.10;;
26600;SDS011;14241;49.260;10.496;2023-04-28T06:22:48;6.72;;;5.60;;
26600;SDS011;14241;49.260;10.496;2023-04-28T06:25:13;9.20;;;5.90;;
26600;SDS011;14241;49.260;10.496;2023-04-28T06:27:38;6.57;;;5.68;;
26600;SDS011;14241;49.260;10.496;2023-04-28T06:30:04;6.87;;;6.17;;
26600;SDS011;14241;49.260;10.496;2023-04-28T06:32:29;9.18;;;6.32;;
26600;SDS011;14241;49.260;10.496;2023-04-28T06:34:54;7.63;;;5.30;;
26600;SDS011;14241;49.260;10.496;2023-04-28T06:37:20;8.73;;;5.87;;
26600;SDS011;14241;49.260;10.496;2023-04-28T06:39:45;7.57;;;5.00;;
26600;SDS011;14241;49.260;10.496;2023-04-28T06:42:11;6.45;;;5.63;;
26600;SDS011;14241;49.260;10.496;2023-04-28T06:44:36;7.93;;;5.30;;
26600;SDS011;14241;49.260;10.496;2023-04-28T06:47:01;12.48;;;6.25;;
26600;SDS011;14241;49.260;10.496;2023-04-28T06:49:26;7.57;;;5.50;;
26600;SDS011;14241;49.260;10.496;2023-04-28T06:51:51;8.17;;;5.80;;
26600;SDS011;14241;49.260;10.496;2023-04-28T06:54:17;8.15;;;5.93;;
26600;SDS011;14241;49.260;10.496;2023-04-28T06:56:42;10.60;;;5.75;;
26600;SDS011;14241;49.260;10.496;2023-04-28T06:59:07;6.93;;;5.15;;
26600;SDS011;14241;49.260;10.496;2023-04-28T07:01:33;9.10;;;5.82;;
26600;SDS011;14241;49.260;10.496;2023-04-28T07:03:58;8.50;;;6.07;;
26600;SDS011;14241;49.260;10.496;2023-04-28T07:06:23;8.88;;;6.10;;
26600;SDS011;14241;49.260;10.496;2023-04-28T07:08:48;8.10;;;6.13;;
26600;SDS011;14241;49.260;10.496;2023-04-28T07:11:14;8.50;;;6.13;;
26600;SDS011;14241;49.260;10.496;2023-04-28T07:13:40;9.73;;;5.53;;
26600;SDS011;14241;49.260;10.496;2023-04-28T07:16:05;7.03;;;5.85;;
26600;SDS011;14241;49.260;10.496;2023-04-28T07:18:31;7.40;;;5.72;;
26600;SDS011;14241;49.260;10.496;2023-04-28T07:20:56;8.10;;;6.13;;
26600;SDS011;14241;49.260;10.496;2023-04-28T07:23:21;9.03;;;6.47;;
26600;SDS011;14241;49.260;10.496;2023-04-28T07:25:46;9.93;;;5.80;;
26600;SDS011;14241;49.260;10.496;2023-04-28T07:28:11;10.40;;;6.82;;
26600;SDS011;14241;49.260;10.496;2023-04-28T07:30:37;9.25;;;6.25;;
26600;SDS011;14241;49.260;10.496;2023-04-28T07:33:03;9.82;;;6.47;;
26600;SDS011;14241;49.260;10.496;2023-04-28T07:35:28;8.98;;;6.93;;
26600;SDS011;14241;49.260;10.496;2023-04-28T07:37:53;12.50;;;6.35;;
26600;SDS011;14241;49.260;10.496;2023-04-28T07:40:19;11.57;;;6.65;;
26600;SDS011;14241;49.260;10.496;2023-04-28T07:42:44;10.15;;;7.43;;
26600;SDS011;14241;49.260;10.496;2023-04-28T07:45:10;13.30;;;7.15;;
26600;SDS011;14241;49.260;10.496;2023-04-28T07:47:35;9.82;;;7.00;;
26600;SDS011;14241;49.260;10.496;2023-04-28T07:50:01;11.38;;;6.95;;
26600;SDS011;14241;49.260;10.496;2023-04-28T07:52:29;11.30;;;6.85;;
26600;SDS011;14241;49.260;10.496;2023-04-28T07:54:54;10.43;;;7.22;;
26600;SDS011;14241;49.260;10.496;2023-04-28T07:57:19;9.48;;;7.90;;
26600;SDS011;14241;49.260;10.496;2023-04-28T07:59:45;12.88;;;7.45;;
26600;SDS011;14241;49.260;10.496;2023-04-28T08:02:10;10.07;;;7.50;;
26600;SDS011;14241;49.260;10.496;2023-04-28T08:04:37;11.13;;;8.77;;
26600;SDS011;14241;49.260;10.496;2023-04-28T08:07:03;11.52;;;8.52;;
26600;SDS011;14241;49.260;10.496;2023-04-28T08:09:28;11.63;;;8.05;;
26600;SDS011;14241;49.260;10.496;2023-04-28T08:11:53;12.37;;;8.00;;
26600;SDS011;14241;49.260;10.496;2023-04-28T08:14:19;9.23;;;7.13;;
26600;SDS011;14241;49.260;10.496;2023-04-28T08:16:44;9.90;;;6.53;;
26600;SDS011;14241;49.260;10.496;2023-04-28T08:19:10;11.18;;;8.35;;
26600;SDS011;14241;49.260;10.496;2023-04-28T08:21:36;9.80;;;7.60;;
26600;SDS011;14241;49.260;10.496;2023-04-28T08:24:01;12.20;;;8.60;;
26600;SDS011;14241;49.260;10.496;2023-04-28T08:26:26;9.43;;;7.35;;
26600;SDS011;14241;49.260;10.496;2023-04-28T08:28:51;10.07;;;7.90;;
26600;SDS011;14241;49.260;10.496;2023-04-28T08:31:17;9.18;;;7.60;;
26600;SDS011;14241;49.260;10.496;2023-04-28T08:33:42;10.50;;;7.00;;
26600;SDS011;14241;49.260;10.496;2023-04-28T08:36:09;9.15;;;6.90;;
26600;SDS011;14241;49.260;10.496;2023-04-28T08:38:36;9.23;;;7.40;;
26600;SDS011;14241;49.260;10.496;2023-04-28T08:41:02;10.57;;;7.65;;
26600;SDS011;14241;49.260;10.496;2023-04-28T08:43:28;13.43;;;7.78;;
26600;SDS011;14241;49.260;10.496;2023-04-28T08:45:54;11.07;;;7.88;;
26600;SDS011;14241;49.260;10.496;2023-04-28T08:48:20;11.05;;;9.13;;
26600;SDS011;14241;49.260;10.496;2023-04-28T08:50:49;9.90;;;7.82;;
26600;SDS011;14241;49.260;10.496;2023-04-28T08:53:18;8.95;;;7.40;;
26600;SDS011;14241;49.260;10.496;2023-04-28T08:55:45;12.02;;;8.20;;
26600;SDS011;14241;49.260;10.496;2023-04-28T08:58:11;9.63;;;8.20;;
26600;SDS011;14241;49.260;10.496;2023-04-28T09:00:36;11.52;;;9.13;;
26600;SDS011;14241;49.260;10.496;2023-04-28T09:03:02;10.52;;;8.05;;
26600;SDS011;14241;49.260;10.496;2023-04-28T09:05:27;14.77;;;8.98;;
26600;SDS011;14241;49.260;10.496;2023-04-28T09:07:53;11.50;;;7.88;;
26600;SDS011;14241;49.260;10.496;2023-04-28T09:10:23;10.48;;;8.52;;
26600;SDS011;14241;49.260;10.496;2023-04-28T09:12:52;10.25;;;8.02;;
26600;SDS011;14241;49.260;10.496;2023-04-28T09:15:31;12.95;;;8.65;;
26600;SDS011;14241;49.260;10.496;2023-04-28T09:17:57;10.25;;;8.45;;
26600;SDS011;14241;49.260;10.496;2023-04-28T09:20:23;10.38;;;9.13;;
26600;SDS011;14241;49.260;10.496;2023-04-28T09:22:48;11.27;;;9.88;;
26600;SDS011;14241;49.260;10.496;2023-04-28T09:25:15;13.20;;;9.07;;
26600;SDS011;14241;49.260;10.496;2023-04-28T09:27:40;11.13;;;9.18;;
26600;SDS011;14241;49.260;10.496;2023-04-28T09:30:06;14.75;;;12.25;;
26600;SDS011;14241;49.260;10.496;2023-04-28T09:32:32;14.80;;;12.02;;
26600;SDS011;14241;49.260;10.496;2023-04-28T09:34:57;12.23;;;9.55;;
26600;SDS011;14241;49.260;10.496;2023-04-28T09:37:24;11.07;;;9.82;;
26600;SDS011;14241;49.260;10.496;2023-04-28T09:39:50;12.57;;;9.70;;
26600;SDS011;14241;49.260;10.496;2023-04-28T09:44:57;11.32;;;9.35;;
26600;SDS011;14241;49.260;10.496;2023-04-28T09:47:22;13.13;;;9.20;;
26600;SDS011;14241;49.260;10.496;2023-04-28T09:49:56;11.57;;;10.05;;
26600;SDS011;14241;49.260;10.496;2023-04-28T09:52:25;13.18;;;9.90;;
26600;SDS011;14241;49.260;10.496;2023-04-28T09:54:51;12.65;;;11.32;;
26600;SDS011;14241;49.260;10.496;2023-04-28T09:57:17;15.60;;;13.20;;
26600;SDS011;14241;49.260;10.496;2023-04-28T09:59:45;10.95;;;9.48;;
26600;SDS011;14241;49.260;10.496;2023-04-28T10:02:13;12.13;;;10.13;;
26600;SDS011;14241;49.260;10.496;2023-04-28T10:04:38;8.40;;;7.47;;
26600;SDS011;14241;49.260;10.496;2023-04-28T10:07:04;9.63;;;7.53;;
26600;SDS011;14241;49.260;10.496;2023-04-28T10:09:30;9.70;;;8.70;;
26600;SDS011;14241;49.260;10.496;2023-04-28T10:11:55;9.68;;;8.73;;
26600;SDS011;14241;49.260;10.496;2023-04-28T10:14:21;9.60;;;8.32;;
26600;SDS011;14241;49.260;10.496;2023-04-28T10:16:47;8.23;;;7.43;;
26600;SDS011;14241;49.260;10.496;2023-04-28T10:19:15;8.48;;;7.68;;
26600;SDS011;14241;49.260;10.496;2023-04-28T10:21:43;10.07;;;8.07;;
26600;SDS011;14241;49.260;10.496;2023-04-28T10:24:14;9.82;;;8.80;;
26600;SDS011;14241;49.260;10.496;2023-04-28T10:29:27;16.17;;;11.80;;
26600;SDS011;14241;49.260;10.496;2023-04-28T10:34:38;11.45;;;9.05;;
26600;SDS011;14241;49.260;10.496;2023-04-28T10:37:03;8.63;;;7.43;;
26600;SDS011;14241;49.260;10.496;2023-04-28T10:39:29;7.88;;;7.18;;
26600;SDS011;14241;49.260;10.496;2023-04-28T10:41:54;8.20;;;7.13;;
26600;SDS011;14241;49.260;10.496;2023-04-28T10:47:07;9.32;;;7.10;;
26600;SDS011;14241;49.260;10.496;2023-04-28T10:57:43;6.03;;;5.43;;
26600;SDS011;14241;49.260;10.496;2023-04-28T11:00:27;6.60;;;5.18;;
26600;SDS011;14241;49.260;10.496;2023-04-28T11:02:53;5.47;;;4.70;;
26600;SDS011;14241;49.260;10.496;2023-04-28T11:05:18;6.20;;;5.65;;
26600;SDS011;14241;49.260;10.496;2023-04-28T11:11:07;5.13;;;4.45;;
26600;SDS011;14241;49.260;10.496;2023-04-28T11:16:04;4.43;;;4.03;;
26600;SDS011;14241;49.260;10.496;2023-04-28T11:18:33;4.40;;;4.00;;
26600;SDS011;14241;49.260;10.496;2023-04-28T11:21:03;3.53;;;3.22;;
26600;SDS011;14241;49.260;10.496;2023-04-28T11:23:28;4.95;;;3.67;;
26600;SDS011;14241;49.260;10.496;2023-04-28T11:25:54;3.80;;;3.42;;
26600;SDS011;14241;49.260;10.496;2023-04-28T11:28:19;3.65;;;3.35;;
26600;SDS011;14241;49.260;10.496;2023-04-28T11:30:45;3.15;;;2.75;;
26600;SDS011;14241;49.260;10.496;2023-04-28T11:33:10;4.00;;;3.35;;
26600;SDS011;14241;49.260;10.496;2023-04-28T11:35:39;4.40;;;3.22;;
26600;SDS011;14241;49.260;10.496;2023-04-28T11:38:05;3.40;;;3.10;;
26600;SDS011;14241;49.260;10.496;2023-04-28T11:40:30;3.60;;;3.30;;
26600;SDS011;14241;49.260;10.496;2023-04-28T11:42:55;3.35;;;3.05;;
26600;SDS011;14241;49.260;10.496;2023-04-28T11:45:23;4.22;;;3.10;;
26600;SDS011;14241;49.260;10.496;2023-04-28T11:47:48;3.25;;;2.95;;
26600;SDS011;14241;49.260;10.496;2023-04-28T11:50:14;2.87;;;2.53;;
26600;SDS011;14241;49.260;10.496;2023-04-28T11:52:49;2.72;;;2.50;;
26600;SDS011;14241;49.260;10.496;2023-04-28T11:55:15;3.15;;;2.85;;
26600;SDS011;14241;49.260;10.496;2023-04-28T11:57:40;3.28;;;2.95;;
26600;SDS011;14241;49.260;10.496;2023-04-28T12:00:15;2.80;;;2.53;;
26600;SDS011;14241;49.260;10.496;2023-04-28T12:02:46;3.22;;;2.92;;
26600;SDS011;14241;49.260;10.496;2023-04-28T12:05:11;3.35;;;3.05;;
26600;SDS011;14241;49.260;10.496;2023-04-28T12:07:42;4.38;;;3.20;;
26600;SDS011;14241;49.260;10.496;2023-04-28T12:10:08;3.10;;;2.90;;
26600;SDS011;14241;49.260;10.496;2023-04-28T12:12:34;2.85;;;2.50;;
26600;SDS011;14241;49.260;10.496;2023-04-28T12:15:00;3.50;;;3.20;;
26600;SDS011;14241;49.260;10.496;2023-04-28T12:17:26;3.35;;;2.92;;
26600;SDS011;14241;49.260;10.496;2023-04-28T12:19:52;2.83;;;2.63;;
26600;SDS011;14241;49.260;10.496;2023-04-28T12:22:18;3.28;;;2.88;;
26600;SDS011;14241;49.260;10.496;2023-04-28T12:24:43;3.20;;;2.90;;
26600;SDS011;14241;49.260;10.496;2023-04-28T12:27:13;3.65;;;2.47;;
26600;SDS011;14241;49.260;10.496;2023-04-28T12:29:39;2.97;;;2.30;;
26600;SDS011;14241;49.260;10.496;2023-04-28T12:32:08;3.05;;;2.40;;
26600;SDS011;14241;49.260;10.496;2023-04-28T12:34:34;2.85;;;2.45;;
26600;SDS011;14241;49.260;10.496;2023-04-28T12:37:00;2.80;;;2.60;;
26600;SDS011;14241;49.260;10.496;2023-04-28T12:39:26;2.75;;;2.55;;
26600;SDS011;14241;49.260;10.496;2023-04-28T12:41:51;2.63;;;2.42;;
26600;SDS011;14241;49.260;10.496;2023-04-28T12:44:17;2.90;;;2.70;;
26600;SDS011;14241;49.260;10.496;2023-04-28T12:46:42;2.97;;;2.77;;
26600;SDS011;14241;49.260;10.496;2023-04-28T12:49:08;2.13;;;1.93;;
26600;SDS011;14241;49.260;10.496;2023-04-28T12:51:33;2.42;;;2.13;;
26600;SDS011;14241;49.260;10.496;2023-04-28T12:53:59;2.17;;;2.00;;
26600;SDS011;14241;49.260;10.496;2023-04-28T12:56:24;1.80;;;1.70;;
26600;SDS011;14241;49.260;10.496;2023-04-28T12:58:50;3.22;;;2.30;;
26600;SDS011;14241;49.260;10.496;2023-04-28T13:01:15;1.92;;;1.83;;
26600;SDS011;14241;49.260;10.496;2023-04-28T13:03:40;2.50;;;1.70;;
26600;SDS011;14241;49.260;10.496;2023-04-28T13:06:08;1.85;;;1.75;;
26600;SDS011;14241;49.260;10.496;2023-04-28T13:08:34;1.83;;;1.73;;
26600;SDS011;14241;49.260;10.496;2023-04-28T13:11:00;1.80;;;1.70;;
26600;SDS011;14241;49.260;10.496;2023-04-28T13:13:25;1.80;;;1.70;;
26600;SDS011;14241;49.260;10.496;2023-04-28T13:15:50;1.70;;;1.60;;
26600;SDS011;14241;49.260;10.496;2023-04-28T13:18:16;1.70;;;1.60;;
26600;SDS011;14241;49.260;10.496;2023-04-28T13:20:41;1.75;;;1.65;;
26600;SDS011;14241;49.260;10.496;2023-04-28T13:23:06;1.45;;;1.25;;
26600;SDS011;14241;49.260;10.496;2023-04-28T13:25:32;2.40;;;1.23;;
26600;SDS011;14241;49.260;10.496;2023-04-28T13:27:57;1.40;;;1.30;;
26600;SDS011;14241;49.260;10.496;2023-04-28T13:30:22;1.95;;;1.58;;
26600;SDS011;14241;49.260;10.496;2023-04-28T13:32:47;1.13;;;1.07;;
26600;SDS011;14241;49.260;10.496;2023-04-28T13:35:12;1.23;;;1.13;;
26600;SDS011;14241;49.260;10.496;2023-04-28T13:37:38;1.20;;;1.10;;
26600;SDS011;14241;49.260;10.496;2023-04-28T13:40:06;1.20;;;1.10;;
26600;SDS011;14241;49.260;10.496;2023-04-28T13:42:32;1.35;;;1.25;;
26600;SDS011;14241;49.260;10.496;2023-04-28T13:44:58;2.58;;;1.50;;
26600;SDS011;14241;49.260;10.496;2023-04-28T13:47:23;1.63;;;1.53;;
26600;SDS011;14241;49.260;10.496;2023-04-28T13:49:48;2.03;;;1.50;;
26600;SDS011;14241;49.260;10.496;2023-04-28T13:52:14;1.63;;;1.52;;
26600;SDS011;14241;49.260;10.496;2023-04-28T13:54:40;1.50;;;1.40;;
26600;SDS011;14241;49.260;10.496;2023-04-28T13:57:05;2.08;;;1.77;;
26600;SDS011;14241;49.260;10.496;2023-04-28T13:59:31;1.98;;;1.80;;
26600;SDS011;14241;49.260;10.496;2023-04-28T14:01:56;3.30;;;1.92;;
26600;SDS011;14241;49.260;10.496;2023-04-28T14:04:22;2.22;;;1.98;;
26600;SDS011;14241;49.260;10.496;2023-04-28T14:06:47;2.65;;;2.45;;
26600;SDS011;14241;49.260;10.496;2023-04-28T14:09:14;2.03;;;1.92;;
26600;SDS011;14241;49.260;10.496;2023-04-28T14:11:39;2.70;;;2.50;;
26600;SDS011;14241;49.260;10.496;2023-04-28T14:14:04;3.10;;;2.70;;
26600;SDS011;14241;49.260;10.496;2023-04-28T14:16:30;2.75;;;2.25;;
26600;SDS011;14241;49.260;10.496;2023-04-28T14:18:55;2.47;;;2.27;;
26600;SDS011;14241;49.260;10.496;2023-04-28T14:21:20;2.93;;;2.30;;
26600;SDS011;14241;49.260;10.496;2023-04-28T14:23:45;3.63;;;2.20;;
26600;SDS011;14241;49.260;10.496;2023-04-28T14:26:11;2.53;;;2.10;;
26600;SDS011;14241;49.260;10.496;2023-04-28T14:28:36;5.28;;;2.13;;
26600;SDS011;14241;49.260;10.496;2023-04-28T14:31:02;2.63;;;2.20;;
26600;SDS011;14241;49.260;10.496;2023-04-28T14:33:30;2.22;;;1.92;;
26600;SDS011;14241;49.260;10.496;2023-04-28T14:35:55;2.45;;;2.00;;
26600;SDS011;14241;49.260;10.496;2023-04-28T14:38:20;3.57;;;1.77;;
26600;SDS011;14241;49.260;10.496;2023-04-28T14:40:46;2.00;;;1.67;;
26600;SDS011;14241;49.260;10.496;2023-04-28T14:43:11;1.90;;;1.63;;
26600;SDS011;14241;49.260;10.496;2023-04-28T14:45:37;2.13;;;1.92;;
26600;SDS011;14241;49.260;10.496;2023-04-28T14:48:03;2.45;;;1.65;;